createdAt,value
2022-08-03T00:03:22.884Z,20.41
2022-08-03T00:13:25.980Z,20.31
2022-08-03T00:23:33.121Z,20.20
2022-08-03T00:33:59.424Z,20.22
2022-08-03T00:44:05.906Z,20.51
2022-08-03T00:54:08.224Z,20.38
2022-08-03T01:04:10.768Z,20.17
2022-08-03T01:14:23.020Z,19.95
2022-08-03T01:25:03.726Z,19.75
2022-08-03T01:35:38.647Z,19.46
2022-08-03T01:45:44.361Z,19.34
2022-08-03T01:55:54.580Z,19.13
2022-08-03T02:07:00.623Z,19.01
2022-08-03T02:16:26.413Z,19.10
2022-08-03T02:26:31.192Z,19.21
2022-08-03T02:36:40.120Z,19.53
2022-08-03T02:46:47.082Z,19.56
2022-08-03T02:56:52.690Z,19.47
2022-08-03T03:06:57.299Z,19.20
2022-08-03T03:17:02.395Z,19.17
2022-08-03T03:27:05.621Z,19.11
2022-08-03T03:37:08.146Z,19.04
2022-08-03T03:47:10.742Z,19.24
2022-08-03T03:57:14.926Z,19.38
2022-08-03T04:07:37.170Z,19.76
2022-08-03T04:17:42.087Z,19.95
2022-08-03T04:28:29.556Z,20.37
2022-08-03T04:38:15.497Z,20.89
2022-08-03T04:48:18.113Z,21.28
2022-08-03T04:58:20.606Z,21.68
2022-08-03T05:08:28.198Z,22.08
2022-08-03T05:18:30.777Z,22.05
2022-08-03T05:28:33.080Z,22.35
2022-08-03T05:38:38.598Z,23.06
2022-08-03T05:48:42.045Z,23.65
2022-08-03T05:58:48.320Z,24.30
2022-08-03T06:08:51.150Z,24.43
2022-08-03T06:18:53.699Z,24.88
2022-08-03T06:28:56.325Z,25.59
2022-08-03T06:38:59.679Z,26.29
2022-08-03T06:49:02.221Z,26.53
2022-08-03T06:59:04.890Z,26.95
2022-08-03T07:09:07.952Z,27.27
2022-08-03T07:19:12.527Z,27.81
2022-08-03T07:29:15.298Z,28.18
2022-08-03T07:39:18.305Z,28.77
2022-08-03T07:49:20.856Z,29.10
2022-08-03T07:59:23.936Z,29.45
2022-08-03T08:09:26.969Z,30.06
2022-08-03T08:19:31.928Z,30.36
2022-08-03T08:29:46.891Z,30.79
2022-08-03T08:39:50.864Z,31.21
2022-08-03T08:50:09.165Z,31.78
2022-08-03T09:00:16.666Z,31.96
2022-08-03T09:10:21.949Z,31.89
2022-08-03T09:20:28.231Z,32.88
2022-08-03T09:30:35.347Z,33.04
2022-08-03T09:40:38.183Z,33.21
2022-08-03T09:50:58.623Z,34.23
2022-08-03T10:01:24.210Z,33.99
2022-08-03T10:11:36.218Z,34.87
2022-08-03T10:22:01.656Z,34.55
2022-08-03T10:32:10.073Z,34.78
2022-08-03T10:42:14.874Z,35.07
2022-08-03T10:52:31.986Z,33.84
2022-08-03T11:03:09.556Z,34.82
2022-08-03T11:13:16.885Z,35.44
2022-08-03T11:24:03.469Z,35.90
2022-08-03T11:34:09.445Z,35.82
2022-08-03T11:44:41.284Z,35.78
2022-08-03T11:54:44.370Z,36.39
2022-08-03T12:05:03.133Z,35.82
2022-08-03T12:15:06.758Z,36.72
2022-08-03T12:25:10.266Z,36.71
2022-08-03T12:35:24.788Z,36.64
2022-08-03T12:45:32.110Z,36.19
2022-08-03T12:55:57.192Z,36.27
2022-08-03T13:05:59.146Z,36.72
2022-08-03T13:16:01.865Z,36.52
2022-08-03T13:26:04.855Z,36.54
2022-08-03T13:36:07.963Z,36.69
2022-08-03T13:46:10.947Z,35.59
2022-08-03T13:56:13.850Z,34.17
2022-08-03T14:06:16.809Z,33.54
2022-08-03T14:16:19.807Z,34.84
2022-08-03T14:26:26.058Z,34.57
2022-08-03T14:36:28.744Z,35.05
2022-08-03T14:46:32.376Z,34.36
2022-08-03T14:56:34.839Z,33.98
2022-08-03T15:06:37.469Z,34.31
2022-08-03T15:16:43.052Z,33.85
2022-08-03T15:26:45.470Z,33.82
2022-08-03T15:36:47.745Z,33.53
2022-08-03T15:46:53.179Z,33.42
2022-08-03T15:56:56.332Z,33.05
2022-08-03T16:07:03.115Z,33.17
2022-08-03T16:17:06.493Z,32.71
2022-08-03T16:27:17.515Z,32.36
2022-08-03T16:37:39.666Z,31.48
2022-08-03T16:47:42.759Z,31.49
2022-08-03T16:57:58.384Z,30.85
2022-08-03T17:08:10.606Z,29.81
2022-08-03T17:18:18.446Z,29.08
2022-08-03T17:28:49.199Z,28.42
2022-08-03T17:38:48.101Z,27.93
2022-08-03T17:48:57.623Z,27.27
2022-08-03T17:59:51.576Z,27.06
2022-08-03T18:10:03.698Z,26.46
2022-08-03T18:20:32.696Z,26.34
2022-08-03T18:30:38.881Z,26.34
2022-08-03T18:40:56.724Z,26.06
2022-08-03T18:51:06.927Z,25.77
2022-08-03T19:01:59.904Z,25.80
2022-08-03T19:12:28.162Z,25.86
2022-08-03T19:22:36.443Z,25.96
2022-08-03T19:32:42.044Z,25.94
2022-08-03T19:43:10.308Z,25.78
2022-08-03T19:53:21.057Z,25.38
2022-08-03T20:03:43.258Z,25.19
2022-08-03T20:13:49.938Z,25.12
2022-08-03T20:24:01.890Z,24.84
2022-08-03T20:34:20.313Z,24.55
2022-08-03T20:44:25.675Z,24.25
2022-08-03T20:54:31.006Z,24.29
2022-08-03T21:04:36.586Z,24.28
2022-08-03T21:14:50.372Z,24.25
2022-08-03T21:24:56.558Z,24.24
2022-08-03T21:34:59.342Z,24.12
2022-08-03T21:45:09.272Z,23.98
2022-08-03T21:55:18.645Z,23.89
2022-08-03T22:05:29.010Z,23.89
2022-08-03T22:15:47.975Z,23.72
2022-08-03T22:25:52.834Z,23.69
2022-08-03T22:35:59.018Z,23.69
2022-08-03T22:46:10.371Z,23.46
2022-08-03T22:56:14.796Z,23.40
2022-08-03T23:06:19.547Z,23.40
2022-08-03T23:16:29.720Z,23.25
2022-08-03T23:26:34.518Z,23.16
2022-08-03T23:36:36.912Z,22.89
2022-08-03T23:46:39.515Z,22.62
2022-08-03T23:57:00.486Z,22.43
